sensor_id;sensor_type;location;lat;lon;timestamp;temperature;humidity
30379;DHT22;17168;49.164;9.060;2023-09-12T00:00:18;20.30;82.70
30379;DHT22;17168;49.164;9.060;2023-09-12T00:02:50;20.30;82.90
30379;DHT22;17168;49.164;9.060;2023-09-12T00:05:23;20.20;83.30
30379;DHT22;17168;49.164;9.060;2023-09-12T00:07:57;20.20;83.80
30379;DHT22;17168;49.164;9.060;2023-09-12T00:10:30;20.20;84.30
30379;DHT22;17168;49.164;9.060;2023-09-12T00:13:02;20.20;84.50
30379;DHT22;17168;49.164;9.060;2023-09-12T00:15:35;20.20;84.70
30379;DHT22;17168;49.164;9.060;2023-09-12T00:18:07;20.20;84.80
30379;DHT22;17168;49.164;9.060;2023-09-12T00:20:39;20.20;85.10
30379;DHT22;17168;49.164;9.060;2023-09-12T00:23:14;20.10;85.70
30379;DHT22;17168;49.164;9.060;2023-09-12T00:25:47;20.10;86.30
30379;DHT22;17168;49.164;9.060;2023-09-12T00:28:19;20.00;87.10
30379;DHT22;17168;49.164;9.060;2023-09-12T00:30:52;20.00;88.20
30379;DHT22;17168;49.164;9.060;2023-09-12T00:33:24;20.00;89.60
30379;DHT22;17168;49.164;9.060;2023-09-12T00:35:57;19.90;90.30
30379;DHT22;17168;49.164;9.060;2023-09-12T00:38:31;19.80;90.80
30379;DHT22;17168;49.164;9.060;2023-09-12T00:41:04;19.80;91.00
30379;DHT22;17168;49.164;9.060;2023-09-12T00:43:36;19.80;91.10
30379;DHT22;17168;49.164;9.060;2023-09-12T00:46:08;19.80;91.20
30379;DHT22;17168;49.164;9.060;2023-09-12T00:48:40;19.80;91.10
30379;DHT22;17168;49.164;9.060;2023-09-12T00:51:14;19.80;91.00
30379;DHT22;17168;49.164;9.060;2023-09-12T00:53:50;19.80;90.90
30379;DHT22;17168;49.164;9.060;2023-09-12T00:56:22;19.80;90.60
30379;DHT22;17168;49.164;9.060;2023-09-12T00:58:55;19.80;90.50
30379;DHT22;17168;49.164;9.060;2023-09-12T01:01:28;19.80;90.50
30379;DHT22;17168;49.164;9.060;2023-09-12T01:04:01;19.80;90.60
30379;DHT22;17168;49.164;9.060;2023-09-12T01:06:34;19.80;90.80
30379;DHT22;17168;49.164;9.060;2023-09-12T01:09:10;19.70;90.70
30379;DHT22;17168;49.164;9.060;2023-09-12T01:11:42;19.70;90.80
30379;DHT22;17168;49.164;9.060;2023-09-12T01:14:14;19.70;90.70
30379;DHT22;17168;49.164;9.060;2023-09-12T01:16:46;19.60;90.70
30379;DHT22;17168;49.164;9.060;2023-09-12T01:19:19;19.60;90.80
30379;DHT22;17168;49.164;9.060;2023-09-12T01:28:16;19.50;91.10
30379;DHT22;17168;49.164;9.060;2023-09-12T01:30:50;19.40;91.00
30379;DHT22;17168;49.164;9.060;2023-09-12T01:33:24;19.40;91.20
30379;DHT22;17168;49.164;9.060;2023-09-12T01:35:56;19.40;91.60
30379;DHT22;17168;49.164;9.060;2023-09-12T01:38:29;19.30;91.80
30379;DHT22;17168;49.164;9.060;2023-09-12T01:41:01;19.30;91.90
30379;DHT22;17168;49.164;9.060;2023-09-12T01:43:37;19.30;92.30
30379;DHT22;17168;49.164;9.060;2023-09-12T01:46:11;19.20;92.70
30379;DHT22;17168;49.164;9.060;2023-09-12T01:48:44;19.20;93.10
30379;DHT22;17168;49.164;9.060;2023-09-12T01:51:18;19.20;93.70
30379;DHT22;17168;49.164;9.060;2023-09-12T01:53:51;19.10;94.20
30379;DHT22;17168;49.164;9.060;2023-09-12T01:56:25;19.10;94.60
30379;DHT22;17168;49.164;9.060;2023-09-12T01:59:00;19.10;95.10
30379;DHT22;17168;49.164;9.060;2023-09-12T02:01:32;19.00;95.60
30379;DHT22;17168;49.164;9.060;2023-09-12T02:04:05;19.00;95.80
30379;DHT22;17168;49.164;9.060;2023-09-12T02:06:40;19.00;96.00
30379;DHT22;17168;49.164;9.060;2023-09-12T02:09:13;19.00;95.90
30379;DHT22;17168;49.164;9.060;2023-09-12T02:11:45;19.00;95.90
30379;DHT22;17168;49.164;9.060;2023-09-12T02:14:20;19.00;96.10
30379;DHT22;17168;49.164;9.060;2023-09-12T02:16:52;19.00;96.10
30379;DHT22;17168;49.164;9.060;2023-09-12T02:19:24;19.00;96.00
30379;DHT22;17168;49.164;9.060;2023-09-12T02:21:56;19.00;96.30
30379;DHT22;17168;49.164;9.060;2023-09-12T02:24:28;19.00;96.30
30379;DHT22;17168;49.164;9.060;2023-09-12T02:27:01;19.00;96.10
30379;DHT22;17168;49.164;9.060;2023-09-12T02:29:38;19.10;96.00
30379;DHT22;17168;49.164;9.060;2023-09-12T02:32:10;19.10;95.90
30379;DHT22;17168;49.164;9.060;2023-09-12T02:34:42;19.10;95.80
30379;DHT22;17168;49.164;9.060;2023-09-12T02:37:14;19.10;95.80
30379;DHT22;17168;49.164;9.060;2023-09-12T02:39:47;19.10;96.00
30379;DHT22;17168;49.164;9.060;2023-09-12T02:42:20;19.10;96.00
30379;DHT22;17168;49.164;9.060;2023-09-12T02:44:54;19.10;96.10
30379;DHT22;17168;49.164;9.060;2023-09-12T02:47:27;19.10;96.00
30379;DHT22;17168;49.164;9.060;2023-09-12T02:49:59;19.20;95.90
30379;DHT22;17168;49.164;9.060;2023-09-12T02:52:31;19.20;95.80
30379;DHT22;17168;49.164;9.060;2023-09-12T02:55:04;19.20;95.60
30379;DHT22;17168;49.164;9.060;2023-09-12T02:57:37;19.20;95.50
30379;DHT22;17168;49.164;9.060;2023-09-12T03:00:12;19.20;95.30
30379;DHT22;17168;49.164;9.060;2023-09-12T03:02:45;19.20;95.20
30379;DHT22;17168;49.164;9.060;2023-09-12T03:05:17;19.20;95.10
30379;DHT22;17168;49.164;9.060;2023-09-12T03:07:50;19.20;95.10
30379;DHT22;17168;49.164;9.060;2023-09-12T03:10:22;19.20;95.10
30379;DHT22;17168;49.164;9.060;2023-09-12T03:12:54;19.20;95.10
30379;DHT22;17168;49.164;9.060;2023-09-12T03:15:29;19.10;95.10
30379;DHT22;17168;49.164;9.060;2023-09-12T03:18:01;19.10;95.20
30379;DHT22;17168;49.164;9.060;2023-09-12T03:20:37;19.10;95.20
30379;DHT22;17168;49.164;9.060;2023-09-12T03:23:10;19.10;95.10
30379;DHT22;17168;49.164;9.060;2023-09-12T03:25:42;19.00;95.30
30379;DHT22;17168;49.164;9.060;2023-09-12T03:28:15;19.00;95.70
30379;DHT22;17168;49.164;9.060;2023-09-12T03:30:50;19.00;96.20
30379;DHT22;17168;49.164;9.060;2023-09-12T03:33:22;18.90;96.60
30379;DHT22;17168;49.164;9.060;2023-09-12T03:35:54;18.90;96.80
30379;DHT22;17168;49.164;9.060;2023-09-12T03:38:26;18.90;97.00
30379;DHT22;17168;49.164;9.060;2023-09-12T03:40:59;18.80;97.00
30379;DHT22;17168;49.164;9.060;2023-09-12T03:43:33;18.80;97.00
30379;DHT22;17168;49.164;9.060;2023-09-12T03:46:08;18.80;97.20
30379;DHT22;17168;49.164;9.060;2023-09-12T03:48:40;18.80;97.50
30379;DHT22;17168;49.164;9.060;2023-09-12T03:51:13;18.70;97.80
30379;DHT22;17168;49.164;9.060;2023-09-12T03:53:45;18.70;98.10
30379;DHT22;17168;49.164;9.060;2023-09-12T03:56:19;18.70;98.40
30379;DHT22;17168;49.164;9.060;2023-09-12T03:58:52;18.70;98.50
30379;DHT22;17168;49.164;9.060;2023-09-12T04:01:31;18.70;98.80
30379;DHT22;17168;49.164;9.060;2023-09-12T04:04:03;18.70;98.80
30379;DHT22;17168;49.164;9.060;2023-09-12T04:06:36;18.70;99.10
30379;DHT22;17168;49.164;9.060;2023-09-12T04:09:08;18.70;99.40
30379;DHT22;17168;49.164;9.060;2023-09-12T04:11:40;18.70;99.30
30379;DHT22;17168;49.164;9.060;2023-09-12T04:14:18;18.70;99.30
30379;DHT22;17168;49.164;9.060;2023-09-12T04:16:53;18.70;99.20
30379;DHT22;17168;49.164;9.060;2023-09-12T04:19:25;18.70;99.20
30379;DHT22;17168;49.164;9.060;2023-09-12T04:21:57;18.80;99.20
30379;DHT22;17168;49.164;9.060;2023-09-12T04:24:30;18.80;99.20
30379;DHT22;17168;49.164;9.060;2023-09-12T04:27:02;18.80;99.20
30379;DHT22;17168;49.164;9.060;2023-09-12T04:29:37;18.80;99.10
30379;DHT22;17168;49.164;9.060;2023-09-12T04:32:11;18.80;99.10
30379;DHT22;17168;49.164;9.060;2023-09-12T04:34:43;18.80;99.10
30379;DHT22;17168;49.164;9.060;2023-09-12T04:37:16;18.80;99.20
30379;DHT22;17168;49.164;9.060;2023-09-12T04:39:48;18.90;99.20
30379;DHT22;17168;49.164;9.060;2023-09-12T04:42:20;18.90;99.10
30379;DHT22;17168;49.164;9.060;2023-09-12T04:44:53;18.90;99.00
30379;DHT22;17168;49.164;9.060;2023-09-12T04:47:28;18.90;98.80
30379;DHT22;17168;49.164;9.060;2023-09-12T04:50:01;19.00;98.80
30379;DHT22;17168;49.164;9.060;2023-09-12T04:52:33;19.00;98.60
30379;DHT22;17168;49.164;9.060;2023-09-12T04:55:06;19.00;98.50
30379;DHT22;17168;49.164;9.060;2023-09-12T04:57:38;19.00;98.40
30379;DHT22;17168;49.164;9.060;2023-09-12T05:00:14;19.10;98.30
30379;DHT22;17168;49.164;9.060;2023-09-12T05:02:49;19.10;98.30
30379;DHT22;17168;49.164;9.060;2023-09-12T05:05:21;19.00;98.30
30379;DHT22;17168;49.164;9.060;2023-09-12T05:07:53;19.00;98.40
30379;DHT22;17168;49.164;9.060;2023-09-12T05:10:25;19.00;98.40
30379;DHT22;17168;49.164;9.060;2023-09-12T05:12:59;19.00;98.40
30379;DHT22;17168;49.164;9.060;2023-09-12T05:15:31;19.00;98.20
30379;DHT22;17168;49.164;9.060;2023-09-12T05:18:07;19.00;98.20
30379;DHT22;17168;49.164;9.060;2023-09-12T05:20:39;19.10;98.20
30379;DHT22;17168;49.164;9.060;2023-09-12T05:23:11;19.10;98.10
30379;DHT22;17168;49.164;9.060;2023-09-12T05:25:43;19.10;98.00
30379;DHT22;17168;49.164;9.060;2023-09-12T05:28:17;19.10;97.90
30379;DHT22;17168;49.164;9.060;2023-09-12T05:30:50;19.20;97.90
30379;DHT22;17168;49.164;9.060;2023-09-12T05:33:25;19.20;97.90
30379;DHT22;17168;49.164;9.060;2023-09-12T05:35:59;19.20;97.90
30379;DHT22;17168;49.164;9.060;2023-09-12T05:38:31;19.20;97.90
30379;DHT22;17168;49.164;9.060;2023-09-12T05:41:03;19.20;97.80
30379;DHT22;17168;49.164;9.060;2023-09-12T05:43:35;19.20;97.80
30379;DHT22;17168;49.164;9.060;2023-09-12T05:46:07;19.20;97.70
30379;DHT22;17168;49.164;9.060;2023-09-12T05:48:45;19.20;97.70
30379;DHT22;17168;49.164;9.060;2023-09-12T05:51:17;19.20;97.60
30379;DHT22;17168;49.164;9.060;2023-09-12T05:53:50;19.30;97.60
30379;DHT22;17168;49.164;9.060;2023-09-12T05:56:30;19.30;97.60
30379;DHT22;17168;49.164;9.060;2023-09-12T05:59:02;19.30;97.60
30379;DHT22;17168;49.164;9.060;2023-09-12T06:01:35;19.30;97.70
30379;DHT22;17168;49.164;9.060;2023-09-12T06:04:12;19.30;97.70
30379;DHT22;17168;49.164;9.060;2023-09-12T06:06:48;19.30;97.60
30379;DHT22;17168;49.164;9.060;2023-09-12T06:09:22;19.30;97.60
30379;DHT22;17168;49.164;9.060;2023-09-12T06:11:55;19.30;97.60
30379;DHT22;17168;49.164;9.060;2023-09-12T06:14:27;19.40;97.60
30379;DHT22;17168;49.164;9.060;2023-09-12T06:16:59;19.40;97.60
30379;DHT22;17168;49.164;9.060;2023-09-12T06:19:34;19.50;97.50
30379;DHT22;17168;49.164;9.060;2023-09-12T06:22:06;19.50;97.40
30379;DHT22;17168;49.164;9.060;2023-09-12T06:24:41;19.60;97.30
30379;DHT22;17168;49.164;9.060;2023-09-12T06:27:13;19.60;97.20
30379;DHT22;17168;49.164;9.060;2023-09-12T06:29:51;19.60;97.10
30379;DHT22;17168;49.164;9.060;2023-09-12T06:32:26;19.70;97.00
30379;DHT22;17168;49.164;9.060;2023-09-12T06:35:07;19.80;96.80
30379;DHT22;17168;49.164;9.060;2023-09-12T06:37:43;19.80;96.80
30379;DHT22;17168;49.164;9.060;2023-09-12T06:40:15;19.80;96.80
30379;DHT22;17168;49.164;9.060;2023-09-12T06:42:48;19.90;96.80
30379;DHT22;17168;49.164;9.060;2023-09-12T06:45:20;19.90;96.80
30379;DHT22;17168;49.164;9.060;2023-09-12T06:47:52;20.00;96.70
30379;DHT22;17168;49.164;9.060;2023-09-12T06:50:27;20.00;96.50
30379;DHT22;17168;49.164;9.060;2023-09-12T06:53:05;20.10;96.40
30379;DHT22;17168;49.164;9.060;2023-09-12T06:55:39;20.10;96.20
30379;DHT22;17168;49.164;9.060;2023-09-12T06:58:13;20.20;96.10
30379;DHT22;17168;49.164;9.060;2023-09-12T07:00:45;20.20;95.70
30379;DHT22;17168;49.164;9.060;2023-09-12T07:03:17;20.30;95.50
30379;DHT22;17168;49.164;9.060;2023-09-12T07:05:52;20.30;95.30
30379;DHT22;17168;49.164;9.060;2023-09-12T07:08:24;20.30;95.10
30379;DHT22;17168;49.164;9.060;2023-09-12T07:10:59;20.40;94.90
30379;DHT22;17168;49.164;9.060;2023-09-12T07:13:40;20.40;94.70
30379;DHT22;17168;49.164;9.060;2023-09-12T07:16:15;20.50;94.50
30379;DHT22;17168;49.164;9.060;2023-09-12T07:18:48;20.50;94.40
30379;DHT22;17168;49.164;9.060;2023-09-12T07:21:23;20.50;94.30
30379;DHT22;17168;49.164;9.060;2023-09-12T07:23:55;20.50;94.30
30379;DHT22;17168;49.164;9.060;2023-09-12T07:26:35;20.60;94.20
30379;DHT22;17168;49.164;9.060;2023-09-12T07:29:07;20.70;94.30
30379;DHT22;17168;49.164;9.060;2023-09-12T07:31:39;20.70;94.20
30379;DHT22;17168;49.164;9.060;2023-09-12T07:34:17;20.70;94.00
30379;DHT22;17168;49.164;9.060;2023-09-12T07:36:52;20.80;94.00
30379;DHT22;17168;49.164;9.060;2023-09-12T07:39:31;20.80;93.90
30379;DHT22;17168;49.164;9.060;2023-09-12T07:42:03;20.90;93.80
30379;DHT22;17168;49.164;9.060;2023-09-12T07:44:42;20.90;93.60
30379;DHT22;17168;49.164;9.060;2023-09-12T07:47:14;21.00;93.50
30379;DHT22;17168;49.164;9.060;2023-09-12T07:49:55;21.00;93.40
30379;DHT22;17168;49.164;9.060;2023-09-12T07:52:29;21.10;93.30
30379;DHT22;17168;49.164;9.060;2023-09-12T07:55:02;21.10;93.20
30379;DHT22;17168;49.164;9.060;2023-09-12T07:57:35;21.20;93.20
30379;DHT22;17168;49.164;9.060;2023-09-12T08:00:09;21.30;93.20
30379;DHT22;17168;49.164;9.060;2023-09-12T08:02:43;21.30;93.20
30379;DHT22;17168;49.164;9.060;2023-09-12T08:05:15;21.40;93.20
30379;DHT22;17168;49.164;9.060;2023-09-12T08:07:50;21.40;93.10
30379;DHT22;17168;49.164;9.060;2023-09-12T08:10:22;21.50;93.00
30379;DHT22;17168;49.164;9.060;2023-09-12T08:12:54;21.60;93.00
30379;DHT22;17168;49.164;9.060;2023-09-12T08:15:27;21.60;92.90
30379;DHT22;17168;49.164;9.060;2023-09-12T08:17:59;21.70;92.80
30379;DHT22;17168;49.164;9.060;2023-09-12T08:20:31;21.80;92.70
30379;DHT22;17168;49.164;9.060;2023-09-12T08:23:06;21.90;92.60
30379;DHT22;17168;49.164;9.060;2023-09-12T08:25:39;21.90;92.60
30379;DHT22;17168;49.164;9.060;2023-09-12T08:28:11;22.00;92.70
30379;DHT22;17168;49.164;9.060;2023-09-12T08:30:44;22.00;92.60
30379;DHT22;17168;49.164;9.060;2023-09-12T08:33:17;22.10;92.40
30379;DHT22;17168;49.164;9.060;2023-09-12T08:35:50;22.10;92.20
30379;DHT22;17168;49.164;9.060;2023-09-12T08:38:25;22.20;92.10
30379;DHT22;17168;49.164;9.060;2023-09-12T08:40:57;22.30;92.00
30379;DHT22;17168;49.164;9.060;2023-09-12T08:43:30;22.40;91.90
30379;DHT22;17168;49.164;9.060;2023-09-12T08:46:03;22.40;91.80
30379;DHT22;17168;49.164;9.060;2023-09-12T08:48:37;22.50;91.60
30379;DHT22;17168;49.164;9.060;2023-09-12T08:51:11;22.60;91.40
30379;DHT22;17168;49.164;9.060;2023-09-12T08:53:47;22.60;91.20
30379;DHT22;17168;49.164;9.060;2023-09-12T08:56:19;22.70;90.90
30379;DHT22;17168;49.164;9.060;2023-09-12T08:58:52;22.80;90.60
30379;DHT22;17168;49.164;9.060;2023-09-12T09:01:26;22.80;90.40
30379;DHT22;17168;49.164;9.060;2023-09-12T09:04:04;22.90;90.30
30379;DHT22;17168;49.164;9.060;2023-09-12T09:06:37;23.00;90.10
30379;DHT22;17168;49.164;9.060;2023-09-12T09:09:14;23.10;90.00
30379;DHT22;17168;49.164;9.060;2023-09-12T09:11:46;23.20;89.40
30379;DHT22;17168;49.164;9.060;2023-09-12T09:14:19;23.30;88.90
30379;DHT22;17168;49.164;9.060;2023-09-12T09:16:51;23.40;88.50
30379;DHT22;17168;49.164;9.060;2023-09-12T09:19:40;23.50;88.20
30379;DHT22;17168;49.164;9.060;2023-09-12T09:22:12;23.50;87.60
30379;DHT22;17168;49.164;9.060;2023-09-12T09:25:09;23.60;87.10
30379;DHT22;17168;49.164;9.060;2023-09-12T09:27:43;23.70;86.50
30379;DHT22;17168;49.164;9.060;2023-09-12T09:30:15;23.90;86.20
30379;DHT22;17168;49.164;9.060;2023-09-12T09:32:48;24.00;85.90
30379;DHT22;17168;49.164;9.060;2023-09-12T09:35:25;24.00;85.50
30379;DHT22;17168;49.164;9.060;2023-09-12T09:37:58;24.10;85.00
30379;DHT22;17168;49.164;9.060;2023-09-12T09:40:33;24.20;84.70
30379;DHT22;17168;49.164;9.060;2023-09-12T09:43:06;24.30;83.80
30379;DHT22;17168;49.164;9.060;2023-09-12T09:45:45;24.40;83.40
30379;DHT22;17168;49.164;9.060;2023-09-12T09:48:22;24.50;82.90
30379;DHT22;17168;49.164;9.060;2023-09-12T09:51:02;24.60;82.50
30379;DHT22;17168;49.164;9.060;2023-09-12T09:53:35;24.70;81.90
30379;DHT22;17168;49.164;9.060;2023-09-12T09:56:12;24.80;80.70
30379;DHT22;17168;49.164;9.060;2023-09-12T09:58:49;24.90;80.10
30379;DHT22;17168;49.164;9.060;2023-09-12T10:01:23;25.00;79.30
30379;DHT22;17168;49.164;9.060;2023-09-12T10:04:00;25.10;78.30
30379;DHT22;17168;49.164;9.060;2023-09-12T10:06:36;25.20;76.90
30379;DHT22;17168;49.164;9.060;2023-09-12T10:09:10;25.30;76.20
30379;DHT22;17168;49.164;9.060;2023-09-12T10:11:47;25.40;75.30
30379;DHT22;17168;49.164;9.060;2023-09-12T10:14:20;25.60;74.80
30379;DHT22;17168;49.164;9.060;2023-09-12T10:17:00;25.70;74.30
30379;DHT22;17168;49.164;9.060;2023-09-12T10:19:43;25.90;74.30
30379;DHT22;17168;49.164;9.060;2023-09-12T10:22:20;26.00;73.50
30379;DHT22;17168;49.164;9.060;2023-09-12T10:24:57;26.10;73.20
30379;DHT22;17168;49.164;9.060;2023-09-12T10:27:44;26.20;72.80
30379;DHT22;17168;49.164;9.060;2023-09-12T10:30:17;26.30;72.30
30379;DHT22;17168;49.164;9.060;2023-09-12T10:32:51;26.50;71.00
30379;DHT22;17168;49.164;9.060;2023-09-12T10:35:24;26.60;69.80
30379;DHT22;17168;49.164;9.060;2023-09-12T10:37:59;26.70;68.70
30379;DHT22;17168;49.164;9.060;2023-09-12T10:40:36;26.80;69.00
30379;DHT22;17168;49.164;9.060;2023-09-12T10:43:17;26.90;68.50
30379;DHT22;17168;49.164;9.060;2023-09-12T10:45:51;27.00;67.60
30379;DHT22;17168;49.164;9.060;2023-09-12T10:48:24;27.20;67.30
30379;DHT22;17168;49.164;9.060;2023-09-12T10:50:57;27.30;66.30
30379;DHT22;17168;49.164;9.060;2023-09-12T10:53:31;27.40;65.70
30379;DHT22;17168;49.164;9.060;2023-09-12T10:56:16;27.50;65.40
30379;DHT22;17168;49.164;9.060;2023-09-12T10:59:13;27.60;63.90
30379;DHT22;17168;49.164;9.060;2023-09-12T11:01:47;27.70;63.40
30379;DHT22;17168;49.164;9.060;2023-09-12T11:04:38;27.90;63.90
30379;DHT22;17168;49.164;9.060;2023-09-12T11:07:44;28.00;63.00
30379;DHT22;17168;49.164;9.060;2023-09-12T11:10:18;28.10;63.70
30379;DHT22;17168;49.164;9.060;2023-09-12T11:12:51;28.20;64.00
30379;DHT22;17168;49.164;9.060;2023-09-12T11:15:27;28.40;63.20
30379;DHT22;17168;49.164;9.060;2023-09-12T11:18:20;28.50;62.30
30379;DHT22;17168;49.164;9.060;2023-09-12T11:20:59;28.60;60.80
30379;DHT22;17168;49.164;9.060;2023-09-12T11:23:31;28.60;60.20
30379;DHT22;17168;49.164;9.060;2023-09-12T11:26:07;28.70;60.40
30379;DHT22;17168;49.164;9.060;2023-09-12T11:28:42;28.80;59.60
30379;DHT22;17168;49.164;9.060;2023-09-12T11:31:27;28.90;59.60
30379;DHT22;17168;49.164;9.060;2023-09-12T11:34:02;29.00;60.10
30379;DHT22;17168;49.164;9.060;2023-09-12T11:36:38;29.10;59.30
30379;DHT22;17168;49.164;9.060;2023-09-12T11:39:22;29.20;58.70
30379;DHT22;17168;49.164;9.060;2023-09-12T11:41:57;29.40;58.70
30379;DHT22;17168;49.164;9.060;2023-09-12T11:44:30;29.60;58.10
30379;DHT22;17168;49.164;9.060;2023-09-12T11:47:05;30.00;57.70
30379;DHT22;17168;49.164;9.060;2023-09-12T11:49:40;30.40;56.30
30379;DHT22;17168;49.164;9.060;2023-09-12T11:52:14;30.80;55.60
30379;DHT22;17168;49.164;9.060;2023-09-12T11:54:48;31.40;54.50
30379;DHT22;17168;49.164;9.060;2023-09-12T11:57:23;31.90;53.60
30379;DHT22;17168;49.164;9.060;2023-09-12T11:59:56;32.40;52.80
30379;DHT22;17168;49.164;9.060;2023-09-12T12:02:34;33.00;52.90
30379;DHT22;17168;49.164;9.060;2023-09-12T12:05:07;33.50;51.30
30379;DHT22;17168;49.164;9.060;2023-09-12T12:07:40;33.80;50.20
30379;DHT22;17168;49.164;9.060;2023-09-12T12:10:14;34.10;49.40
30379;DHT22;17168;49.164;9.060;2023-09-12T12:12:47;34.20;48.00
30379;DHT22;17168;49.164;9.060;2023-09-12T12:15:20;34.40;47.70
30379;DHT22;17168;49.164;9.060;2023-09-12T12:17:59;34.60;47.20
30379;DHT22;17168;49.164;9.060;2023-09-12T12:20:32;34.80;47.50
30379;DHT22;17168;49.164;9.060;2023-09-12T12:23:04;34.90;47.40
30379;DHT22;17168;49.164;9.060;2023-09-12T12:25:36;34.90;46.80
30379;DHT22;17168;49.164;9.060;2023-09-12T12:28:16;34.80;47.00
30379;DHT22;17168;49.164;9.060;2023-09-12T12:30:50;34.80;47.10
30379;DHT22;17168;49.164;9.060;2023-09-12T12:33:27;34.70;45.60
30379;DHT22;17168;49.164;9.060;2023-09-12T12:36:20;34.60;44.90
30379;DHT22;17168;49.164;9.060;2023-09-12T12:38:53;34.40;45.20
30379;DHT22;17168;49.164;9.060;2023-09-12T12:41:29;34.30;45.70
30379;DHT22;17168;49.164;9.060;2023-09-12T12:44:17;34.30;46.00
30379;DHT22;17168;49.164;9.060;2023-09-12T12:46:50;34.70;46.20
30379;DHT22;17168;49.164;9.060;2023-09-12T12:49:25;35.00;46.00
30379;DHT22;17168;49.164;9.060;2023-09-12T12:51:58;35.20;45.80
30379;DHT22;17168;49.164;9.060;2023-09-12T12:54:31;35.40;44.80
30379;DHT22;17168;49.164;9.060;2023-09-12T12:57:05;35.90;44.90
30379;DHT22;17168;49.164;9.060;2023-09-12T12:59:37;36.30;44.80
30379;DHT22;17168;49.164;9.060;2023-09-12T13:02:10;36.70;43.60
30379;DHT22;17168;49.164;9.060;2023-09-12T13:04:45;37.00;43.00
30379;DHT22;17168;49.164;9.060;2023-09-12T13:07:17;37.10;42.40
30379;DHT22;17168;49.164;9.060;2023-09-12T13:09:50;37.20;41.80
30379;DHT22;17168;49.164;9.060;2023-09-12T13:12:22;37.20;41.70
30379;DHT22;17168;49.164;9.060;2023-09-12T13:14:54;37.30;41.10
30379;DHT22;17168;49.164;9.060;2023-09-12T13:17:26;37.30;41.00
30379;DHT22;17168;49.164;9.060;2023-09-12T13:20:02;37.30;40.90
30379;DHT22;17168;49.164;9.060;2023-09-12T13:22:34;37.40;40.60
30379;DHT22;17168;49.164;9.060;2023-09-12T13:25:08;37.50;40.30
30379;DHT22;17168;49.164;9.060;2023-09-12T13:27:40;37.60;40.40
30379;DHT22;17168;49.164;9.060;2023-09-12T13:30:13;37.70;40.10
30379;DHT22;17168;49.164;9.060;2023-09-12T13:32:45;37.90;40.40
30379;DHT22;17168;49.164;9.060;2023-09-12T13:35:21;38.20;40.40
30379;DHT22;17168;49.164;9.060;2023-09-12T13:37:53;38.30;40.50
30379;DHT22;17168;49.164;9.060;2023-09-12T13:40:25;38.30;40.30
30379;DHT22;17168;49.164;9.060;2023-09-12T13:42:59;38.30;40.30
30379;DHT22;17168;49.164;9.060;2023-09-12T13:45:37;38.40;39.90
30379;DHT22;17168;49.164;9.060;2023-09-12T13:48:09;38.40;39.90
30379;DHT22;17168;49.164;9.060;2023-09-12T13:50:46;38.50;39.90
30379;DHT22;17168;49.164;9.060;2023-09-12T13:53:19;38.50;40.10
30379;DHT22;17168;49.164;9.060;2023-09-12T13:55:51;38.50;39.90
30379;DHT22;17168;49.164;9.060;2023-09-12T13:58:43;38.50;39.90
30379;DHT22;17168;49.164;9.060;2023-09-12T14:01:17;38.50;39.10
30379;DHT22;17168;49.164;9.060;2023-09-12T14:04:05;38.40;39.20
30379;DHT22;17168;49.164;9.060;2023-09-12T14:06:41;38.30;39.20
30379;DHT22;17168;49.164;9.060;2023-09-12T14:09:16;38.30;39.00
30379;DHT22;17168;49.164;9.060;2023-09-12T14:11:56;38.20;38.30
30379;DHT22;17168;49.164;9.060;2023-09-12T14:14:28;38.10;38.60
30379;DHT22;17168;49.164;9.060;2023-09-12T14:17:01;38.20;39.00
30379;DHT22;17168;49.164;9.060;2023-09-12T14:19:34;38.20;39.20
30379;DHT22;17168;49.164;9.060;2023-09-12T14:22:11;38.20;39.30
30379;DHT22;17168;49.164;9.060;2023-09-12T14:24:45;38.20;39.10
30379;DHT22;17168;49.164;9.060;2023-09-12T14:27:18;38.20;39.10
30379;DHT22;17168;49.164;9.060;2023-09-12T14:29:58;38.10;38.80
30379;DHT22;17168;49.164;9.060;2023-09-12T14:32:31;37.90;38.90
30379;DHT22;17168;49.164;9.060;2023-09-12T14:35:04;37.80;39.00
30379;DHT22;17168;49.164;9.060;2023-09-12T14:37:39;37.60;39.00
30379;DHT22;17168;49.164;9.060;2023-09-12T14:40:12;37.40;39.30
30379;DHT22;17168;49.164;9.060;2023-09-12T14:42:47;37.30;39.80
30379;DHT22;17168;49.164;9.060;2023-09-12T14:45:19;37.20;40.00
30379;DHT22;17168;49.164;9.060;2023-09-12T14:47:51;37.00;40.30
30379;DHT22;17168;49.164;9.060;2023-09-12T14:50:25;36.90;40.60
30379;DHT22;17168;49.164;9.060;2023-09-12T14:53:16;36.80;40.70
30379;DHT22;17168;49.164;9.060;2023-09-12T14:55:48;36.70;40.70
30379;DHT22;17168;49.164;9.060;2023-09-12T14:58:26;36.50;40.80
30379;DHT22;17168;49.164;9.060;2023-09-12T15:00:58;36.30;41.10
30379;DHT22;17168;49.164;9.060;2023-09-12T15:03:37;36.20;41.40
30379;DHT22;17168;49.164;9.060;2023-09-12T15:06:10;36.10;41.40
30379;DHT22;17168;49.164;9.060;2023-09-12T15:08:46;36.00;41.30
30379;DHT22;17168;49.164;9.060;2023-09-12T15:11:18;35.90;40.80
30379;DHT22;17168;49.164;9.060;2023-09-12T15:13:50;35.80;40.80
30379;DHT22;17168;49.164;9.060;2023-09-12T15:16:27;35.80;41.10
30379;DHT22;17168;49.164;9.060;2023-09-12T15:19:07;35.70;41.20
30379;DHT22;17168;49.164;9.060;2023-09-12T15:21:39;35.70;41.30
30379;DHT22;17168;49.164;9.060;2023-09-12T15:24:14;35.70;41.20
30379;DHT22;17168;49.164;9.060;2023-09-12T15:26:46;35.60;41.30
30379;DHT22;17168;49.164;9.060;2023-09-12T15:29:19;35.60;41.30
30379;DHT22;17168;49.164;9.060;2023-09-12T15:31:51;35.50;41.10
30379;DHT22;17168;49.164;9.060;2023-09-12T15:34:23;35.40;41.30
30379;DHT22;17168;49.164;9.060;2023-09-12T15:37:07;35.40;41.30
30379;DHT22;17168;49.164;9.060;2023-09-12T15:39:56;35.30;41.30
30379;DHT22;17168;49.164;9.060;2023-09-12T15:42:28;35.30;41.50
30379;DHT22;17168;49.164;9.060;2023-09-12T15:45:09;35.20;41.60
30379;DHT22;17168;49.164;9.060;2023-09-12T15:47:43;35.20;41.80
30379;DHT22;17168;49.164;9.060;2023-09-12T15:50:16;35.20;41.90
30379;DHT22;17168;49.164;9.060;2023-09-12T15:52:49;35.20;41.80
30379;DHT22;17168;49.164;9.060;2023-09-12T15:55:24;35.10;42.10
30379;DHT22;17168;49.164;9.060;2023-09-12T15:57:56;35.00;42.10
30379;DHT22;17168;49.164;9.060;2023-09-12T16:00:29;35.00;42.30
30379;DHT22;17168;49.164;9.060;2023-09-12T16:03:01;34.90;42.10
30379;DHT22;17168;49.164;9.060;2023-09-12T16:05:33;34.80;41.90
30379;DHT22;17168;49.164;9.060;2023-09-12T16:08:05;34.80;42.00
30379;DHT22;17168;49.164;9.060;2023-09-12T16:10:40;34.70;42.20
30379;DHT22;17168;49.164;9.060;2023-09-12T16:13:13;34.50;42.50
30379;DHT22;17168;49.164;9.060;2023-09-12T16:15:45;34.50;42.50
30379;DHT22;17168;49.164;9.060;2023-09-12T16:18:17;34.40;42.20
30379;DHT22;17168;49.164;9.060;2023-09-12T16:20:49;34.30;42.10